createdAt,value
2018-07-03T00:02:07.070Z,21.75
2018-07-03T00:04:37.563Z,21.75
2018-07-03T00:07:07.878Z,21.70
2018-07-03T00:09:38.287Z,21.66
2018-07-03T00:12:08.635Z,21.67
2018-07-03T00:14:39.270Z,21.64
2018-07-03T00:17:14.773Z,21.56
2018-07-03T00:19:47.009Z,21.45
2018-07-03T00:22:17.816Z,21.40
2018-07-03T00:24:48.239Z,21.38
2018-07-03T00:27:19.555Z,21.42
2018-07-03T00:29:50.067Z,21.39
2018-07-03T00:32:20.776Z,21.24
2018-07-03T00:34:50.960Z,21.23
2018-07-03T00:37:21.600Z,21.22
2018-07-03T00:39:52.301Z,21.19
2018-07-03T00:42:22.826Z,21.18
2018-07-03T00:44:53.230Z,21.22
2018-07-03T00:47:23.715Z,21.32
2018-07-03T00:49:54.208Z,21.30
2018-07-03T00:52:24.663Z,21.19
2018-07-03T00:54:55.108Z,21.09
2018-07-03T00:57:25.528Z,21.04
2018-07-03T01:00:06.967Z,21.00
2018-07-03T01:02:37.189Z,20.98
2018-07-03T01:05:07.722Z,20.99
2018-07-03T01:07:45.286Z,20.88
2018-07-03T01:10:15.756Z,20.83
2018-07-03T01:12:46.176Z,20.78
2018-07-03T01:15:16.434Z,20.73
2018-07-03T01:17:46.817Z,20.66
2018-07-03T01:20:18.160Z,20.65
2018-07-03T01:22:48.720Z,20.69
2018-07-03T01:25:19.314Z,20.64
2018-07-03T01:27:49.693Z,20.67
2018-07-03T01:30:20.102Z,20.63
2018-07-03T01:32:50.590Z,20.57
2018-07-03T01:35:21.024Z,20.49
2018-07-03T01:37:51.361Z,20.43
2018-07-03T01:40:22.278Z,20.42
2018-07-03T01:42:53.586Z,20.35
2018-07-03T01:45:24.419Z,20.32
2018-07-03T01:47:54.812Z,20.35
2018-07-03T01:50:25.250Z,20.35
2018-07-03T01:52:55.851Z,20.31
2018-07-03T01:55:26.292Z,20.30
2018-07-03T01:57:56.628Z,20.36
2018-07-03T02:00:27.371Z,20.39
2018-07-03T02:02:57.827Z,20.40
2018-07-03T02:05:28.511Z,20.36
2018-07-03T02:07:58.847Z,20.28
2018-07-03T02:10:29.508Z,20.27
2018-07-03T02:12:59.879Z,20.19
2018-07-03T02:15:31.150Z,20.17
2018-07-03T02:18:01.526Z,20.17
2018-07-03T02:20:31.848Z,20.17
2018-07-03T02:23:02.317Z,20.21
2018-07-03T02:25:32.646Z,20.19
2018-07-03T02:28:03.122Z,20.21
2018-07-03T02:30:33.670Z,20.17
2018-07-03T02:33:03.986Z,20.27
2018-07-03T02:35:34.401Z,20.22
2018-07-03T02:38:04.949Z,20.11
2018-07-03T02:40:35.409Z,20.12
2018-07-03T02:43:06.098Z,19.91
2018-07-03T02:45:36.353Z,19.89
2018-07-03T02:48:06.752Z,19.78
2018-07-03T02:50:37.124Z,19.77
2018-07-03T02:53:07.475Z,19.82
2018-07-03T02:55:38.286Z,19.73
2018-07-03T02:58:08.660Z,19.80
2018-07-03T03:00:39.240Z,19.76
2018-07-03T03:03:09.853Z,19.74
2018-07-03T03:05:40.475Z,19.74
2018-07-03T03:08:11.106Z,19.78
2018-07-03T03:10:41.364Z,19.89
2018-07-03T03:13:11.923Z,19.83
2018-07-03T03:15:42.320Z,19.86
2018-07-03T03:18:12.684Z,19.94
2018-07-03T03:20:43.221Z,19.96
2018-07-03T03:23:13.616Z,19.99
2018-07-03T03:25:44.187Z,20.15
2018-07-03T03:28:14.644Z,20.31
2018-07-03T03:30:45.045Z,20.38
2018-07-03T03:33:15.553Z,20.52
2018-07-03T03:35:45.995Z,20.73
2018-07-03T03:38:16.334Z,20.90
2018-07-03T03:40:46.679Z,21.06
2018-07-03T03:43:17.232Z,21.22
2018-07-03T03:45:47.568Z,21.41
2018-07-03T03:48:17.865Z,21.62
2018-07-03T03:50:48.662Z,21.98
2018-07-03T03:53:19.250Z,22.23
2018-07-03T03:55:49.704Z,22.32
2018-07-03T03:58:20.171Z,22.76
2018-07-03T04:00:50.727Z,22.71
2018-07-03T04:03:21.308Z,22.97
2018-07-03T04:05:52.031Z,23.28
2018-07-03T04:08:22.417Z,23.57
2018-07-03T04:10:53.066Z,23.96
2018-07-03T04:13:23.459Z,24.15
2018-07-03T04:15:54.020Z,24.50
2018-07-03T04:18:29.167Z,24.50
2018-07-03T04:20:59.781Z,24.77
2018-07-03T04:23:30.484Z,24.95
2018-07-03T04:26:00.972Z,25.26
2018-07-03T04:28:32.054Z,25.51
2018-07-03T04:31:02.945Z,25.46
2018-07-03T04:33:33.596Z,26.01
2018-07-03T04:36:04.138Z,26.17
2018-07-03T04:38:35.213Z,26.13
2018-07-03T04:41:05.531Z,26.39
2018-07-03T04:43:35.860Z,26.38
2018-07-03T04:46:06.204Z,26.68
2018-07-03T04:48:36.852Z,26.80
2018-07-03T04:51:07.350Z,27.19
2018-07-03T04:53:38.080Z,27.56
2018-07-03T04:56:08.563Z,27.50
2018-07-03T04:58:38.876Z,27.55
2018-07-03T05:03:45.052Z,28.30
2018-07-03T05:06:15.355Z,28.49
2018-07-03T05:08:45.872Z,28.76
2018-07-03T05:11:16.164Z,28.98
2018-07-03T05:13:46.642Z,28.78
2018-07-03T05:16:17.139Z,28.97
2018-07-03T05:18:47.587Z,29.01
2018-07-03T05:21:18.130Z,29.42
2018-07-03T05:23:48.392Z,29.72
2018-07-03T05:26:18.839Z,29.97
2018-07-03T05:31:25.025Z,30.01
2018-07-03T05:33:55.697Z,30.22
2018-07-03T05:36:25.832Z,30.24
2018-07-03T05:38:56.447Z,30.80
2018-07-03T05:41:27.247Z,30.73
2018-07-03T05:43:57.694Z,29.95
2018-07-03T05:46:28.069Z,30.32
2018-07-03T05:48:58.650Z,30.57
2018-07-03T05:51:29.112Z,31.00
2018-07-03T05:53:59.395Z,31.20
2018-07-03T05:56:29.681Z,30.57
2018-07-03T05:59:00.248Z,30.49
2018-07-03T06:01:30.636Z,30.19
2018-07-03T06:04:01.390Z,30.80
2018-07-03T06:06:32.109Z,31.69
2018-07-03T06:09:02.909Z,31.94
2018-07-03T06:11:33.581Z,32.50
2018-07-03T06:14:04.000Z,32.56
2018-07-03T06:16:34.631Z,32.92
2018-07-03T06:19:05.462Z,32.85
2018-07-03T06:21:35.999Z,31.40
2018-07-03T06:24:06.427Z,31.89
2018-07-03T06:26:36.967Z,32.48
2018-07-03T06:29:07.533Z,32.42
2018-07-03T06:31:37.891Z,32.24
2018-07-03T06:34:08.437Z,31.94
2018-07-03T06:36:38.743Z,33.08
2018-07-03T06:39:12.314Z,33.29
2018-07-03T06:41:42.974Z,32.99
2018-07-03T06:44:13.359Z,34.32
2018-07-03T06:46:43.854Z,34.32
2018-07-03T06:49:14.458Z,35.17
2018-07-03T06:51:44.801Z,34.14
2018-07-03T06:54:15.119Z,34.24
2018-07-03T06:56:45.588Z,34.17
2018-07-03T06:59:16.033Z,34.58
2018-07-03T07:01:46.516Z,34.49
2018-07-03T07:04:17.072Z,33.95
2018-07-03T07:06:47.430Z,34.92
2018-07-03T07:09:18.573Z,34.65
2018-07-03T07:11:48.887Z,35.30
2018-07-03T07:14:19.562Z,35.46
2018-07-03T07:16:49.807Z,35.74
2018-07-03T07:19:21.114Z,34.59
2018-07-03T07:21:51.672Z,35.83
2018-07-03T07:24:22.160Z,34.94
2018-07-03T07:26:52.601Z,36.84
2018-07-03T07:29:23.914Z,36.94
2018-07-03T07:31:54.275Z,36.21
2018-07-03T07:34:24.881Z,37.04
2018-07-03T07:36:55.304Z,36.33
2018-07-03T07:39:25.930Z,36.08
2018-07-03T07:41:56.335Z,36.27
2018-07-03T07:44:26.747Z,36.12
2018-07-03T07:46:57.377Z,35.26
2018-07-03T07:49:27.949Z,35.75
2018-07-03T07:51:58.426Z,36.53
2018-07-03T07:54:28.836Z,36.54
2018-07-03T07:56:59.416Z,36.31
2018-07-03T07:59:29.889Z,36.90
2018-07-03T08:02:00.325Z,36.99
2018-07-03T08:04:30.812Z,38.43
2018-07-03T08:07:01.182Z,36.64
2018-07-03T08:09:31.800Z,37.49
2018-07-03T08:12:02.099Z,38.42
2018-07-03T08:14:32.611Z,38.52
2018-07-03T08:17:03.292Z,38.27
2018-07-03T08:19:33.872Z,38.18
2018-07-03T08:22:04.306Z,38.17
2018-07-03T08:24:34.982Z,38.28
2018-07-03T08:27:05.296Z,37.93
2018-07-03T08:29:35.729Z,37.91
2018-07-03T08:32:06.434Z,37.99
2018-07-03T08:34:36.785Z,37.14
2018-07-03T08:37:07.102Z,37.50
2018-07-03T08:39:37.544Z,37.61
2018-07-03T08:42:08.097Z,38.31
2018-07-03T08:44:38.669Z,37.74
2018-07-03T08:47:08.979Z,37.74
2018-07-03T08:49:39.495Z,39.39
2018-07-03T08:52:10.905Z,36.86
2018-07-03T08:54:41.296Z,38.37
2018-07-03T08:57:11.659Z,36.81
2018-07-03T08:59:42.051Z,37.48
2018-07-03T09:02:12.466Z,36.86
2018-07-03T09:04:43.724Z,36.85
2018-07-03T09:07:14.800Z,36.96
2018-07-03T09:09:45.195Z,37.78
2018-07-03T09:12:15.639Z,37.72
2018-07-03T09:14:46.128Z,38.90
2018-07-03T09:17:21.610Z,38.30
2018-07-03T09:19:51.972Z,37.37
2018-07-03T09:22:22.284Z,38.93
2018-07-03T09:24:52.612Z,39.06
2018-07-03T09:27:23.138Z,39.12
2018-07-03T09:29:54.004Z,38.91
2018-07-03T09:32:24.230Z,38.60
2018-07-03T09:34:54.648Z,38.86
2018-07-03T09:37:24.996Z,39.85
2018-07-03T09:39:55.418Z,36.92
2018-07-03T09:42:25.794Z,37.34
2018-07-03T09:44:56.111Z,37.64
2018-07-03T09:47:27.174Z,38.06
2018-07-03T09:49:58.190Z,38.23
2018-07-03T09:52:28.539Z,37.56
2018-07-03T09:54:58.943Z,38.38
2018-07-03T09:57:29.293Z,38.45
2018-07-03T09:59:59.520Z,38.67
2018-07-03T10:02:30.138Z,38.50
2018-07-03T10:05:00.372Z,38.97
2018-07-03T10:07:31.023Z,39.40
2018-07-03T10:10:01.266Z,39.32
2018-07-03T10:12:31.645Z,39.96
2018-07-03T10:15:01.976Z,38.72
2018-07-03T10:17:32.292Z,38.82
2018-07-03T10:20:02.745Z,39.04
2018-07-03T10:22:33.225Z,40.01
2018-07-03T10:25:03.831Z,40.36
2018-07-03T10:27:34.199Z,40.20
2018-07-03T10:30:04.667Z,39.87
2018-07-03T10:32:35.044Z,40.33
2018-07-03T10:35:05.425Z,39.58
2018-07-03T10:37:35.912Z,38.96
2018-07-03T10:40:06.670Z,39.35
2018-07-03T10:42:37.072Z,39.48
2018-07-03T10:45:07.482Z,40.13
2018-07-03T10:47:37.823Z,39.58
2018-07-03T10:50:08.330Z,40.33
2018-07-03T10:52:38.521Z,40.62
2018-07-03T10:55:08.879Z,40.72
2018-07-03T10:57:39.199Z,39.70
2018-07-03T11:00:09.555Z,40.22
2018-07-03T11:02:39.872Z,39.36
2018-07-03T11:05:10.277Z,38.05
2018-07-03T11:07:40.728Z,39.44
2018-07-03T11:10:11.114Z,39.99
2018-07-03T11:12:41.673Z,39.44
2018-07-03T11:15:12.398Z,39.70
2018-07-03T11:17:42.927Z,39.32
2018-07-03T11:20:13.376Z,37.61
2018-07-03T11:22:43.701Z,39.00
2018-07-03T11:25:13.892Z,38.18
2018-07-03T11:27:44.194Z,37.45
2018-07-03T11:30:15.018Z,37.38
2018-07-03T11:32:45.258Z,36.69
2018-07-03T11:35:15.484Z,35.45
2018-07-03T11:37:46.627Z,35.17
2018-07-03T11:40:16.932Z,35.04
2018-07-03T11:42:47.219Z,34.76
2018-07-03T11:45:17.498Z,34.11
2018-07-03T11:47:47.824Z,34.23
2018-07-03T11:50:18.147Z,33.98
2018-07-03T11:52:48.485Z,34.23
2018-07-03T11:55:18.879Z,34.07
2018-07-03T11:57:49.423Z,33.64
2018-07-03T12:00:20.236Z,33.57
2018-07-03T12:02:50.619Z,33.47
2018-07-03T12:05:22.480Z,33.49
2018-07-03T12:07:53.986Z,33.72
2018-07-03T12:10:25.259Z,33.84
2018-07-03T12:12:55.828Z,33.54
2018-07-03T12:15:26.188Z,33.44
2018-07-03T12:17:56.573Z,33.49
2018-07-03T12:20:26.887Z,33.66
2018-07-03T12:22:57.566Z,33.49
2018-07-03T12:25:28.102Z,33.75
2018-07-03T12:27:58.464Z,33.62
2018-07-03T12:30:28.970Z,33.78
2018-07-03T12:32:59.598Z,33.47
2018-07-03T12:35:30.069Z,33.12
2018-07-03T12:38:00.750Z,32.82
2018-07-03T12:40:31.174Z,32.94
2018-07-03T12:43:01.625Z,33.08
2018-07-03T12:45:32.238Z,33.14
2018-07-03T12:48:02.751Z,33.41
2018-07-03T12:50:33.109Z,33.48
2018-07-03T12:53:03.616Z,33.38
2018-07-03T12:55:33.997Z,33.68
2018-07-03T12:58:04.598Z,33.86
2018-07-03T13:00:35.147Z,34.03
2018-07-03T13:03:05.564Z,33.95
2018-07-03T13:05:36.055Z,33.92
2018-07-03T13:08:16.773Z,33.76
2018-07-03T13:10:47.864Z,33.84
2018-07-03T13:13:18.279Z,33.91
2018-07-03T13:15:48.744Z,33.86
2018-07-03T13:18:23.195Z,33.75
2018-07-03T13:20:54.728Z,33.87
2018-07-03T13:23:26.120Z,33.94
2018-07-03T13:25:56.553Z,33.92
2018-07-03T13:28:27.107Z,33.78
2018-07-03T13:30:57.394Z,33.90
2018-07-03T13:33:27.756Z,33.92
2018-07-03T13:35:58.213Z,33.88
2018-07-03T13:38:28.990Z,33.69
2018-07-03T13:40:59.619Z,33.71
2018-07-03T13:43:30.166Z,33.58
2018-07-03T13:46:03.971Z,33.51
2018-07-03T13:48:34.401Z,33.73
2018-07-03T13:51:04.921Z,33.87
2018-07-03T13:53:35.328Z,33.71
2018-07-03T13:56:06.076Z,33.95
2018-07-03T13:58:36.459Z,34.04
2018-07-03T14:01:06.868Z,34.19
2018-07-03T14:03:37.333Z,34.11
2018-07-03T14:06:07.793Z,34.03
2018-07-03T14:08:38.099Z,33.70
2018-07-03T14:11:09.108Z,33.78
2018-07-03T14:13:39.706Z,33.83
2018-07-03T14:16:10.038Z,33.90
2018-07-03T14:18:40.516Z,33.87
2018-07-03T14:21:10.833Z,33.88
2018-07-03T14:23:41.403Z,33.68
2018-07-03T14:26:12.236Z,33.83
2018-07-03T14:28:42.611Z,34.01
2018-07-03T14:31:12.938Z,34.06
2018-07-03T14:33:43.373Z,34.33
2018-07-03T14:36:13.545Z,34.18
2018-07-03T14:38:44.115Z,34.26
2018-07-03T14:41:14.357Z,34.18
2018-07-03T14:43:44.684Z,34.02
2018-07-03T14:46:15.049Z,34.09
2018-07-03T14:48:45.297Z,34.16
2018-07-03T14:51:15.759Z,34.23
2018-07-03T14:53:46.476Z,34.29
2018-07-03T14:56:16.887Z,34.47
2018-07-03T14:58:47.260Z,34.50
2018-07-03T15:01:19.809Z,34.42
2018-07-03T15:03:50.075Z,34.09
2018-07-03T15:06:20.378Z,34.13
2018-07-03T15:08:50.690Z,34.09
2018-07-03T15:11:21.197Z,34.10
2018-07-03T15:13:52.392Z,33.95
2018-07-03T15:16:22.696Z,34.08
2018-07-03T15:18:57.884Z,34.07
2018-07-03T15:21:28.194Z,34.04
2018-07-03T15:23:58.554Z,34.03
2018-07-03T15:26:28.855Z,34.00
2018-07-03T15:28:59.417Z,33.92
2018-07-03T15:31:29.911Z,33.69
2018-07-03T15:34:00.311Z,33.66
2018-07-03T15:36:30.931Z,33.65
2018-07-03T15:39:01.235Z,33.68
2018-07-03T15:41:31.635Z,33.84
2018-07-03T15:44:12.688Z,33.74
2018-07-03T15:46:43.028Z,33.71
2018-07-03T15:49:13.256Z,33.47
2018-07-03T15:51:43.811Z,33.56
2018-07-03T15:54:14.198Z,33.47
2018-07-03T15:56:44.605Z,33.39
2018-07-03T15:59:15.060Z,33.43
2018-07-03T16:01:45.404Z,33.33
2018-07-03T16:05:28.793Z,33.34
2018-07-03T16:08:14.091Z,33.29
2018-07-03T16:10:44.517Z,33.32
2018-07-03T16:13:14.863Z,33.33
2018-07-03T16:15:45.262Z,33.22
2018-07-03T16:18:15.483Z,33.12
2018-07-03T16:20:45.803Z,33.11
2018-07-03T16:23:16.116Z,33.06
2018-07-03T16:25:46.573Z,32.96
2018-07-03T16:28:16.864Z,33.03
2018-07-03T16:30:47.199Z,32.96
2018-07-03T16:33:17.611Z,32.92
2018-07-03T16:35:48.055Z,32.99
2018-07-03T16:38:18.481Z,32.99
2018-07-03T16:40:49.265Z,32.97
2018-07-03T16:43:19.743Z,32.85
2018-07-03T16:45:50.061Z,32.78
2018-07-03T16:48:21.327Z,32.73
2018-07-03T16:50:51.754Z,32.71
2018-07-03T16:53:22.236Z,32.58
2018-07-03T16:55:52.589Z,32.47
2018-07-03T16:58:22.953Z,32.49
2018-07-03T17:00:53.248Z,32.32
2018-07-03T17:03:23.528Z,32.26
2018-07-03T17:05:53.773Z,32.36
2018-07-03T17:08:24.272Z,32.35
2018-07-03T17:10:55.110Z,32.18
2018-07-03T17:13:25.596Z,32.13
2018-07-03T17:15:55.939Z,32.04
2018-07-03T17:18:26.256Z,31.99
2018-07-03T17:20:56.608Z,31.95
2018-07-03T17:23:27.031Z,31.84
2018-07-03T17:25:57.442Z,31.86
2018-07-03T17:28:28.090Z,31.76
2018-07-03T17:30:58.579Z,31.74
2018-07-03T17:33:28.866Z,31.71
2018-07-03T17:35:59.248Z,31.67
2018-07-03T17:38:29.639Z,31.56
2018-07-03T17:41:11.091Z,31.36
2018-07-03T17:44:06.405Z,31.35
2018-07-03T17:46:36.916Z,31.21
2018-07-03T17:49:07.852Z,31.06
2018-07-03T17:51:38.075Z,30.79
2018-07-03T17:54:09.174Z,30.61
2018-07-03T17:56:39.661Z,30.53
2018-07-03T17:59:09.988Z,30.48
2018-07-03T18:01:40.708Z,30.34
2018-07-03T18:04:11.055Z,30.21
2018-07-03T18:06:41.594Z,30.19
2018-07-03T18:09:12.977Z,30.15
2018-07-03T18:11:43.358Z,30.11
2018-07-03T18:14:13.583Z,30.13
2018-07-03T18:16:44.135Z,30.06
2018-07-03T18:19:19.625Z,29.90
2018-07-03T18:21:49.956Z,29.79
2018-07-03T18:24:20.330Z,29.74
2018-07-03T18:26:50.719Z,29.62
2018-07-03T18:29:21.118Z,29.55
2018-07-03T18:31:51.581Z,29.58
2018-07-03T18:34:22.072Z,29.54
2018-07-03T18:36:52.462Z,29.41
2018-07-03T18:39:22.932Z,29.35
2018-07-03T18:41:53.380Z,29.25
2018-07-03T18:44:23.579Z,29.21
2018-07-03T18:46:53.827Z,29.13
2018-07-03T18:49:24.256Z,29.07
2018-07-03T18:51:54.488Z,29.02
2018-07-03T18:54:24.961Z,28.89
2018-07-03T18:56:55.276Z,28.80
2018-07-03T18:59:25.995Z,28.75
2018-07-03T19:01:56.383Z,28.65
2018-07-03T19:04:26.714Z,28.52
2018-07-03T19:06:57.210Z,28.38
2018-07-03T19:09:28.135Z,28.31
2018-07-03T19:11:58.467Z,28.28
2018-07-03T19:14:28.912Z,28.09
2018-07-03T19:16:59.458Z,28.15
2018-07-03T19:19:29.780Z,28.10
2018-07-03T19:22:00.494Z,28.10
2018-07-03T19:24:30.788Z,28.06
2018-07-03T19:27:01.239Z,27.98
2018-07-03T19:29:31.634Z,28.04
2018-07-03T19:32:02.237Z,28.12
2018-07-03T19:34:32.514Z,28.03
2018-07-03T19:37:03.034Z,28.04
2018-07-03T19:39:33.537Z,28.11
2018-07-03T19:42:03.816Z,28.06
2018-07-03T19:44:34.469Z,28.04
2018-07-03T19:47:05.043Z,28.08
2018-07-03T19:49:35.828Z,28.05
2018-07-03T19:52:06.206Z,27.96
2018-07-03T19:54:37.088Z,27.95
2018-07-03T19:57:08.641Z,27.90
2018-07-03T19:59:38.860Z,27.92
2018-07-03T20:02:09.964Z,27.85
2018-07-03T20:04:41.202Z,27.92
2018-07-03T20:07:11.328Z,27.81
2018-07-03T20:09:41.653Z,27.79
2018-07-03T20:12:11.976Z,27.86
2018-07-03T20:14:42.333Z,27.75
2018-07-03T20:17:13.640Z,27.73
2018-07-03T20:19:44.117Z,27.67
2018-07-03T20:22:14.384Z,27.67
2018-07-03T20:24:45.018Z,27.60
2018-07-03T20:27:15.397Z,27.57
2018-07-03T20:29:45.970Z,27.39
2018-07-03T20:32:16.483Z,27.32
2018-07-03T20:34:46.926Z,27.27
2018-07-03T20:37:17.369Z,27.22
2018-07-03T20:39:47.894Z,27.06
2018-07-03T20:42:18.439Z,26.86
2018-07-03T20:44:48.871Z,26.65
2018-07-03T20:47:19.312Z,26.50
2018-07-03T20:49:49.603Z,26.43
2018-07-03T20:52:20.117Z,26.57
2018-07-03T20:54:50.578Z,26.63
2018-07-03T20:57:21.116Z,26.61
2018-07-03T20:59:51.495Z,26.57
2018-07-03T21:02:22.848Z,26.60
2018-07-03T21:04:53.402Z,26.40
2018-07-03T21:07:23.969Z,26.42
2018-07-03T21:09:54.435Z,26.39
2018-07-03T21:12:24.672Z,26.42
2018-07-03T21:14:55.667Z,26.47
2018-07-03T21:17:26.091Z,26.61
2018-07-03T21:19:56.430Z,26.72
2018-07-03T21:22:26.788Z,26.68
2018-07-03T21:24:57.055Z,26.63
2018-07-03T21:27:27.665Z,26.55
2018-07-03T21:29:58.036Z,26.59
2018-07-03T21:32:28.319Z,26.56
2018-07-03T21:34:58.718Z,26.59
2018-07-03T21:37:28.892Z,26.38
2018-07-03T21:39:59.304Z,26.33
2018-07-03T21:42:29.396Z,26.22
2018-07-03T21:44:59.712Z,26.07
2018-07-03T21:47:30.097Z,25.91
2018-07-03T21:50:02.217Z,25.87
2018-07-03T21:52:32.567Z,25.78
2018-07-03T21:55:03.322Z,25.65
2018-07-03T21:57:33.629Z,25.70
2018-07-03T22:00:04.350Z,25.59
2018-07-03T22:02:34.577Z,25.57
2018-07-03T22:05:05.027Z,25.49
2018-07-03T22:07:35.653Z,25.50
2018-07-03T22:10:05.989Z,25.45
2018-07-03T22:12:36.337Z,25.40
2018-07-03T22:15:06.968Z,25.32
2018-07-03T22:17:37.257Z,25.27
2018-07-03T22:20:07.824Z,25.23
2018-07-03T22:22:38.343Z,25.15
2018-07-03T22:25:08.603Z,25.12
2018-07-03T22:27:38.831Z,25.05
2018-07-03T22:30:09.169Z,25.03
2018-07-03T22:32:39.349Z,25.11
2018-07-03T22:35:10.766Z,25.13
2018-07-03T22:37:41.612Z,25.15
2018-07-03T22:40:12.032Z,25.06
2018-07-03T22:42:42.511Z,25.01
2018-07-03T22:45:12.979Z,25.02
2018-07-03T22:47:43.953Z,24.97
2018-07-03T22:50:14.158Z,24.94
2018-07-03T22:52:44.582Z,24.84
2018-07-03T22:55:15.889Z,24.87
2018-07-03T22:57:46.262Z,24.78
2018-07-03T23:00:17.445Z,24.82
2018-07-03T23:02:47.915Z,24.83
2018-07-03T23:05:18.308Z,24.83
2018-07-03T23:07:48.783Z,24.78
2018-07-03T23:10:18.992Z,24.76
2018-07-03T23:12:49.306Z,24.73
2018-07-03T23:15:19.557Z,24.61
2018-07-03T23:17:49.748Z,24.63
2018-07-03T23:20:20.069Z,24.71
2018-07-03T23:22:50.383Z,24.63
2018-07-03T23:25:20.791Z,24.59
2018-07-03T23:27:51.316Z,24.61
2018-07-03T23:30:21.663Z,24.62
2018-07-03T23:32:52.069Z,24.61
2018-07-03T23:35:22.426Z,24.66
2018-07-03T23:37:52.896Z,24.59
2018-07-03T23:40:23.350Z,24.53
2018-07-03T23:42:53.668Z,24.47
2018-07-03T23:45:27.270Z,24.51
2018-07-03T23:48:08.522Z,24.47
2018-07-03T23:50:55.572Z,24.37
2018-07-03T23:53:42.891Z,24.31
2018-07-03T23:56:30.388Z,23.63
2018-07-03T23:59:17.532Z,24.22
